createdAt,value
2018-04-30T00:00:44.647Z,4.97
2018-04-30T00:03:13.071Z,5.67
2018-04-30T00:05:41.516Z,5.40
2018-04-30T00:08:10.041Z,5.37
2018-04-30T00:10:38.466Z,5.30
2018-04-30T00:13:06.900Z,5.87
2018-04-30T00:15:35.537Z,5.80
2018-04-30T00:18:04.013Z,5.70
2018-04-30T00:20:32.461Z,5.40
2018-04-30T00:23:00.915Z,5.57
2018-04-30T00:25:29.336Z,5.93
2018-04-30T00:27:57.745Z,5.57
2018-04-30T00:30:26.238Z,5.63
2018-04-30T00:32:54.662Z,5.83
2018-04-30T00:35:23.093Z,5.83
2018-04-30T00:37:51.562Z,5.60
2018-04-30T00:40:19.984Z,5.43
2018-04-30T00:42:48.418Z,5.70
2018-04-30T00:45:16.869Z,5.40
2018-04-30T00:47:45.370Z,6.20
2018-04-30T00:50:13.742Z,6.20
2018-04-30T00:52:42.202Z,5.53
2018-04-30T00:55:10.616Z,6.53
2018-04-30T00:57:39.056Z,6.03
2018-04-30T01:00:07.654Z,5.60
2018-04-30T01:02:36.061Z,6.07
2018-04-30T01:05:04.512Z,6.00
2018-04-30T01:07:32.984Z,6.40
2018-04-30T01:10:01.440Z,6.17
2018-04-30T01:12:29.867Z,6.43
2018-04-30T01:14:58.341Z,6.60
2018-04-30T01:17:26.774Z,6.10
2018-04-30T01:19:55.231Z,5.70
2018-04-30T01:22:23.723Z,6.83
2018-04-30T01:24:52.149Z,6.60
2018-04-30T01:27:20.569Z,6.60
2018-04-30T01:29:49.036Z,6.47
2018-04-30T01:32:17.449Z,6.50
2018-04-30T01:34:45.871Z,6.40
2018-04-30T01:37:14.377Z,6.30
2018-04-30T01:39:42.792Z,6.47
2018-04-30T01:42:11.197Z,6.27
2018-04-30T01:44:39.706Z,6.73
2018-04-30T01:47:08.128Z,6.50
2018-04-30T01:49:41.569Z,7.10
2018-04-30T01:52:10.020Z,7.37
2018-04-30T01:54:38.471Z,7.30
2018-04-30T01:57:06.948Z,6.83
2018-04-30T01:59:35.372Z,6.87
2018-04-30T02:02:03.812Z,7.03
2018-04-30T02:04:32.434Z,7.23
2018-04-30T02:07:00.877Z,7.60
2018-04-30T02:09:29.346Z,7.53
2018-04-30T02:11:58.069Z,7.97
2018-04-30T02:14:26.530Z,7.70
2018-04-30T02:16:55.004Z,7.90
2018-04-30T02:19:23.522Z,7.50
2018-04-30T02:21:51.960Z,7.60
2018-04-30T02:24:20.433Z,7.90
2018-04-30T02:26:48.951Z,7.63
2018-04-30T02:29:17.413Z,8.27
2018-04-30T02:31:45.862Z,7.83
2018-04-30T02:34:14.433Z,8.27
2018-04-30T02:36:42.892Z,8.27
2018-04-30T02:39:11.324Z,8.43
2018-04-30T02:41:39.833Z,8.77
2018-04-30T02:44:08.268Z,8.23
2018-04-30T02:46:36.724Z,8.57
2018-04-30T02:49:05.519Z,8.87
2018-04-30T02:51:33.997Z,9.13
2018-04-30T02:54:02.489Z,8.97
2018-04-30T02:56:30.989Z,8.93
2018-04-30T02:58:59.430Z,9.03
2018-04-30T03:01:28.099Z,9.07
2018-04-30T03:03:56.548Z,9.57
2018-04-30T03:06:24.969Z,9.90
2018-04-30T03:08:53.429Z,9.97
2018-04-30T03:11:21.909Z,9.80
2018-04-30T03:13:50.341Z,10.17
2018-04-30T03:16:18.792Z,10.37
2018-04-30T03:18:47.270Z,10.47
2018-04-30T03:21:15.698Z,9.43
2018-04-30T03:23:44.135Z,10.03
2018-04-30T03:26:12.618Z,9.97
2018-04-30T03:28:41.038Z,10.80
2018-04-30T03:31:09.498Z,10.83
2018-04-30T03:33:37.985Z,10.33
2018-04-30T03:36:06.428Z,11.53
2018-04-30T03:38:34.862Z,10.67
2018-04-30T03:41:03.345Z,11.30
2018-04-30T03:43:31.776Z,11.00
2018-04-30T03:46:00.204Z,11.43
2018-04-30T03:48:28.671Z,11.30
2018-04-30T03:50:57.096Z,11.80
2018-04-30T03:53:25.540Z,11.07
2018-04-30T03:55:54.036Z,11.23
2018-04-30T03:58:22.464Z,12.27
2018-04-30T04:01:02.605Z,11.87
2018-04-30T04:03:42.892Z,11.47
2018-04-30T04:09:11.182Z,11.53
2018-04-30T04:11:39.666Z,12.33
2018-04-30T04:14:08.089Z,12.53
2018-04-30T04:16:36.508Z,12.27
2018-04-30T04:19:05.016Z,12.40
2018-04-30T04:21:33.449Z,13.00
2018-04-30T04:24:01.912Z,12.23
2018-04-30T04:26:30.393Z,11.87
2018-04-30T04:28:58.813Z,12.87
2018-04-30T04:31:27.265Z,11.83
2018-04-30T04:33:55.748Z,12.07
2018-04-30T04:36:24.184Z,11.83
2018-04-30T04:38:52.617Z,11.73
2018-04-30T04:41:21.090Z,11.97
2018-04-30T04:43:49.701Z,12.00
2018-04-30T04:46:18.128Z,12.50
2018-04-30T04:48:46.609Z,12.23
2018-04-30T04:51:15.053Z,12.33
2018-04-30T04:53:43.480Z,12.77
2018-04-30T04:56:12.009Z,12.13
2018-04-30T04:58:40.437Z,11.83
2018-04-30T05:01:08.863Z,11.90
2018-04-30T05:03:37.343Z,11.93
2018-04-30T05:06:05.825Z,12.07
2018-04-30T05:08:34.240Z,11.67
2018-04-30T05:11:02.705Z,12.40
2018-04-30T05:13:31.135Z,12.87
2018-04-30T05:15:59.572Z,11.97
2018-04-30T05:18:28.060Z,11.40
2018-04-30T05:20:56.520Z,11.57
2018-04-30T05:23:24.980Z,12.63
2018-04-30T05:25:53.441Z,11.00
2018-04-30T05:28:21.867Z,11.53
2018-04-30T05:30:50.285Z,11.30
2018-04-30T05:33:18.971Z,12.23
2018-04-30T05:35:47.404Z,11.50
2018-04-30T05:38:15.829Z,11.40
2018-04-30T05:40:44.288Z,11.07
2018-04-30T05:43:12.715Z,11.80
2018-04-30T05:45:41.144Z,11.20
2018-04-30T05:48:09.649Z,11.40
2018-04-30T05:50:38.072Z,11.27
2018-04-30T05:53:06.524Z,11.73
2018-04-30T05:55:35.000Z,10.93
2018-04-30T05:58:03.458Z,11.50
2018-04-30T06:00:31.961Z,11.97
2018-04-30T06:03:00.412Z,10.93
2018-04-30T06:05:28.841Z,10.93
2018-04-30T06:07:57.280Z,10.73
2018-04-30T06:10:25.735Z,11.20
2018-04-30T06:12:54.164Z,10.70
2018-04-30T06:15:22.601Z,10.53
2018-04-30T06:17:51.084Z,10.37
2018-04-30T06:20:19.564Z,11.13
2018-04-30T06:22:48.031Z,10.30
2018-04-30T06:25:16.508Z,11.07
2018-04-30T06:27:44.927Z,9.83
2018-04-30T06:30:13.357Z,9.67
2018-04-30T06:32:41.832Z,10.40
2018-04-30T06:35:10.256Z,9.87
2018-04-30T06:37:38.672Z,9.67
2018-04-30T06:40:07.149Z,10.17
2018-04-30T06:42:35.571Z,9.40
2018-04-30T06:45:04.028Z,9.07
2018-04-30T06:47:32.508Z,9.30
2018-04-30T06:50:00.940Z,9.27
2018-04-30T06:52:29.364Z,8.67
2018-04-30T06:54:57.835Z,8.90
2018-04-30T06:57:26.258Z,8.30
2018-04-30T06:59:54.676Z,8.43
2018-04-30T07:02:23.144Z,8.23
2018-04-30T07:04:51.574Z,7.57
2018-04-30T07:07:20.000Z,7.87
2018-04-30T07:09:48.468Z,7.63
2018-04-30T07:12:16.881Z,6.93
2018-04-30T07:14:45.292Z,6.57
2018-04-30T07:17:13.745Z,6.67
2018-04-30T07:19:42.177Z,7.20
2018-04-30T07:22:10.604Z,6.20
2018-04-30T07:24:39.068Z,6.80
2018-04-30T07:27:07.499Z,5.17
2018-04-30T07:29:35.922Z,4.50
2018-04-30T07:32:04.395Z,4.50
2018-04-30T07:34:32.838Z,3.83
2018-04-30T07:37:01.254Z,3.70
2018-04-30T07:39:29.709Z,3.10
2018-04-30T07:41:58.137Z,3.17
2018-04-30T07:44:26.545Z,3.30
2018-04-30T07:46:55.027Z,3.20
2018-04-30T07:49:23.441Z,2.73
2018-04-30T07:51:51.860Z,2.50
2018-04-30T07:54:20.704Z,2.57
2018-04-30T07:56:49.111Z,2.30
2018-04-30T07:59:17.512Z,1.80
2018-04-30T08:01:45.962Z,1.50
2018-04-30T08:04:14.429Z,1.30
2018-04-30T08:06:42.842Z,1.03
2018-04-30T08:09:11.534Z,1.07
2018-04-30T08:11:39.949Z,0.90
2018-04-30T08:14:08.396Z,0.90
2018-04-30T08:16:36.852Z,0.90
2018-04-30T08:19:05.328Z,0.50
2018-04-30T08:21:33.798Z,0.80
2018-04-30T08:24:02.250Z,0.67
2018-04-30T08:26:30.742Z,0.93
2018-04-30T08:28:59.152Z,0.77
2018-04-30T08:31:27.600Z,1.00
2018-04-30T08:33:56.014Z,0.80
2018-04-30T08:36:24.425Z,1.50
2018-04-30T08:38:52.881Z,0.60
2018-04-30T08:41:21.296Z,0.80
2018-04-30T08:43:49.699Z,0.63
2018-04-30T08:46:18.162Z,0.70
2018-04-30T08:48:46.563Z,0.57
2018-04-30T08:51:14.980Z,0.80
2018-04-30T08:53:43.439Z,0.63
2018-04-30T08:56:11.888Z,1.00
2018-04-30T08:58:40.308Z,0.70
2018-04-30T09:01:08.790Z,0.87
2018-04-30T09:03:37.197Z,0.60
2018-04-30T09:06:05.644Z,0.70
2018-04-30T09:08:34.099Z,0.60
2018-04-30T09:11:02.536Z,0.70
2018-04-30T09:13:30.953Z,0.60
2018-04-30T09:15:59.408Z,0.70
2018-04-30T09:18:28.038Z,0.50
2018-04-30T09:20:56.454Z,0.83
2018-04-30T09:23:24.913Z,0.60
2018-04-30T09:25:53.344Z,0.57
2018-04-30T09:28:21.760Z,0.60
2018-04-30T09:30:50.230Z,0.80
2018-04-30T09:33:18.645Z,0.60
2018-04-30T09:35:47.073Z,0.60
2018-04-30T09:38:15.520Z,0.70
2018-04-30T09:40:43.937Z,0.60
2018-04-30T09:43:12.344Z,0.77
2018-04-30T09:45:40.820Z,0.90
2018-04-30T09:48:09.231Z,0.90
2018-04-30T09:50:37.680Z,0.80
2018-04-30T09:53:06.140Z,0.90
2018-04-30T09:55:34.579Z,0.70
2018-04-30T09:58:02.993Z,0.90
2018-04-30T10:00:31.441Z,1.10
2018-04-30T10:02:59.860Z,0.60
2018-04-30T10:05:28.276Z,0.70
2018-04-30T10:07:56.728Z,0.80
2018-04-30T10:10:25.140Z,1.07
2018-04-30T10:12:53.571Z,0.67
2018-04-30T10:15:22.056Z,0.50
2018-04-30T10:17:50.572Z,0.67
2018-04-30T10:20:18.960Z,0.70
2018-04-30T10:22:47.412Z,0.50
2018-04-30T10:25:15.820Z,0.70
2018-04-30T10:27:44.241Z,0.60
2018-04-30T10:30:12.700Z,0.70
2018-04-30T10:32:41.134Z,0.50
2018-04-30T10:35:09.543Z,0.47
2018-04-30T10:37:37.993Z,0.60
2018-04-30T10:40:06.409Z,0.43
2018-04-30T10:42:34.830Z,0.40
2018-04-30T10:45:03.295Z,0.50
2018-04-30T10:47:31.699Z,0.50
2018-04-30T10:50:00.135Z,0.50
2018-04-30T10:52:28.610Z,0.50
2018-04-30T10:54:57.028Z,0.47
2018-04-30T10:57:25.432Z,0.50
2018-04-30T10:59:53.916Z,0.53
2018-04-30T11:02:22.330Z,0.63
2018-04-30T11:04:50.740Z,0.50
2018-04-30T11:07:19.196Z,0.60
2018-04-30T11:09:47.612Z,0.47
2018-04-30T11:12:16.034Z,0.60
2018-04-30T11:14:44.486Z,0.57
2018-04-30T11:17:12.902Z,0.60
2018-04-30T11:19:41.315Z,0.57
2018-04-30T11:22:09.772Z,0.40
2018-04-30T11:24:38.184Z,0.70
2018-04-30T11:27:06.595Z,0.47
2018-04-30T11:29:35.058Z,0.43
2018-04-30T11:32:03.464Z,0.40
2018-04-30T11:34:31.873Z,0.40
2018-04-30T11:37:00.340Z,0.60
2018-04-30T11:39:28.812Z,0.60
2018-04-30T11:41:57.239Z,0.50
2018-04-30T11:44:25.729Z,0.60
2018-04-30T11:46:54.161Z,0.50
2018-04-30T11:49:22.597Z,0.70
2018-04-30T11:51:51.100Z,0.70
2018-04-30T11:54:19.548Z,0.80
2018-04-30T11:56:47.997Z,0.57
2018-04-30T11:59:16.465Z,0.50
2018-04-30T12:01:44.884Z,0.60
2018-04-30T12:04:13.302Z,0.50
2018-04-30T12:06:41.787Z,0.57
2018-04-30T12:09:10.564Z,0.50
2018-04-30T12:11:38.984Z,0.50
2018-04-30T12:14:07.448Z,0.60
2018-04-30T12:16:35.912Z,0.57
2018-04-30T12:19:04.338Z,0.63
2018-04-30T12:21:32.833Z,0.70
2018-04-30T12:24:01.293Z,0.90
2018-04-30T12:26:29.768Z,0.50
2018-04-30T12:28:58.259Z,0.57
2018-04-30T12:31:26.696Z,0.70
2018-04-30T12:33:55.140Z,0.83
2018-04-30T12:36:23.601Z,0.50
2018-04-30T12:38:52.024Z,0.60
2018-04-30T12:41:20.451Z,0.70
2018-04-30T12:43:48.927Z,0.60
2018-04-30T12:46:17.356Z,0.60
2018-04-30T12:48:45.782Z,0.60
2018-04-30T12:51:14.253Z,0.70
2018-04-30T12:53:42.668Z,0.60
2018-04-30T12:56:11.083Z,0.50
2018-04-30T12:58:39.563Z,0.60
2018-04-30T13:01:07.984Z,0.60
2018-04-30T13:03:36.404Z,0.63
2018-04-30T13:06:04.873Z,0.60
2018-04-30T13:08:33.292Z,0.70
2018-04-30T13:11:01.717Z,0.50
2018-04-30T13:13:30.376Z,0.50
2018-04-30T13:15:58.832Z,0.60
2018-04-30T13:18:27.247Z,0.60
2018-04-30T13:20:55.691Z,0.50
2018-04-30T13:23:24.105Z,0.37
2018-04-30T13:25:52.524Z,0.50
2018-04-30T13:28:20.992Z,0.50
2018-04-30T13:30:49.394Z,0.53
2018-04-30T13:33:17.808Z,0.60
2018-04-30T13:35:46.298Z,0.50
2018-04-30T13:38:14.700Z,0.60
2018-04-30T13:40:43.112Z,0.60
2018-04-30T13:43:11.577Z,0.50
2018-04-30T13:45:40.002Z,0.70
2018-04-30T13:48:08.412Z,0.40
2018-04-30T13:50:36.865Z,0.40
2018-04-30T13:53:05.268Z,0.40
2018-04-30T13:55:33.672Z,0.50
2018-04-30T13:58:02.116Z,0.60
2018-04-30T14:00:30.520Z,0.70
2018-04-30T14:02:58.932Z,0.43
2018-04-30T14:05:27.385Z,0.50
2018-04-30T14:07:55.800Z,0.33
2018-04-30T14:10:24.211Z,0.50
2018-04-30T14:12:52.668Z,0.50
2018-04-30T14:15:21.070Z,0.40
2018-04-30T14:17:49.480Z,0.40
2018-04-30T14:20:17.933Z,0.50
2018-04-30T14:22:46.336Z,0.50
2018-04-30T14:25:14.758Z,0.47
2018-04-30T14:27:43.232Z,0.40
2018-04-30T14:30:11.652Z,0.57
2018-04-30T14:32:40.052Z,0.50
2018-04-30T14:35:08.561Z,0.40
2018-04-30T14:37:36.968Z,0.50
2018-04-30T14:40:05.380Z,0.40
2018-04-30T14:42:33.835Z,0.40
2018-04-30T14:45:02.248Z,0.60
2018-04-30T14:47:30.656Z,0.50
2018-04-30T14:49:59.091Z,0.50
2018-04-30T14:52:27.496Z,0.47
2018-04-30T14:54:55.904Z,0.63
2018-04-30T14:57:24.351Z,0.40
2018-04-30T14:59:52.760Z,0.40
2018-04-30T15:02:21.174Z,0.40
2018-04-30T15:04:49.627Z,0.47
2018-04-30T15:07:18.040Z,0.30
2018-04-30T15:09:46.449Z,0.47
2018-04-30T15:12:14.932Z,0.40
2018-04-30T15:14:43.344Z,0.40
2018-04-30T15:17:11.744Z,0.60
2018-04-30T15:19:40.188Z,0.40
2018-04-30T15:22:08.605Z,0.40
2018-04-30T15:24:37.016Z,0.50
2018-04-30T15:27:05.492Z,0.40
2018-04-30T15:29:33.906Z,0.43
2018-04-30T15:32:02.315Z,0.40
2018-04-30T15:34:30.756Z,0.30
2018-04-30T15:36:59.168Z,0.57
2018-04-30T15:39:27.572Z,0.40
2018-04-30T15:41:56.020Z,0.47
2018-04-30T15:44:24.453Z,0.40
2018-04-30T15:46:52.872Z,0.40
2018-04-30T15:49:21.329Z,0.57
2018-04-30T15:51:49.737Z,0.53
2018-04-30T15:54:18.147Z,0.43
2018-04-30T15:56:46.589Z,0.40
2018-04-30T15:59:15.000Z,0.43
2018-04-30T16:01:43.416Z,0.53
2018-04-30T16:04:11.881Z,0.40
2018-04-30T16:06:40.288Z,0.60
2018-04-30T16:09:08.693Z,0.40
2018-04-30T16:11:37.136Z,0.37
2018-04-30T16:14:05.651Z,0.43
2018-04-30T16:16:33.984Z,0.40
2018-04-30T16:19:02.444Z,0.50
2018-04-30T16:21:30.848Z,0.30
2018-04-30T16:23:59.284Z,0.30
2018-04-30T16:26:27.740Z,0.50
2018-04-30T16:28:56.166Z,0.40
2018-04-30T16:31:24.575Z,0.40
2018-04-30T16:33:53.068Z,0.50
2018-04-30T16:36:21.505Z,0.93
2018-04-30T16:38:49.910Z,0.40
2018-04-30T16:41:18.356Z,0.57
2018-04-30T16:43:46.768Z,0.67
2018-04-30T16:46:15.173Z,0.60
2018-04-30T16:48:43.623Z,0.40
2018-04-30T16:51:12.056Z,0.50
2018-04-30T16:53:40.488Z,0.50
2018-04-30T16:56:08.973Z,0.53
2018-04-30T16:58:37.417Z,0.30
2018-04-30T17:01:05.820Z,0.47
2018-04-30T17:03:34.303Z,0.50
2018-04-30T17:06:02.717Z,0.33
2018-04-30T17:08:31.132Z,0.60
2018-04-30T17:10:59.593Z,0.70
2018-04-30T17:13:27.999Z,0.40
2018-04-30T17:15:56.412Z,0.30
2018-04-30T17:18:24.857Z,0.50
2018-04-30T17:20:53.260Z,0.40
2018-04-30T17:23:21.663Z,0.43
2018-04-30T17:25:50.124Z,0.40
2018-04-30T17:28:18.561Z,0.60
2018-04-30T17:30:47.033Z,0.60
2018-04-30T17:33:15.484Z,0.40
2018-04-30T17:35:43.911Z,0.40
2018-04-30T17:38:12.323Z,0.40
2018-04-30T17:40:40.782Z,0.40
2018-04-30T17:43:09.188Z,0.50
2018-04-30T17:45:37.589Z,0.50
2018-04-30T17:48:06.036Z,0.47
2018-04-30T17:50:34.448Z,0.50
2018-04-30T17:53:02.857Z,0.57
2018-04-30T17:55:31.309Z,0.57
2018-04-30T17:57:59.732Z,0.60
2018-04-30T18:00:28.156Z,0.40
2018-04-30T18:02:56.634Z,0.40
2018-04-30T18:05:25.049Z,0.40
2018-04-30T18:07:53.465Z,0.40
2018-04-30T18:10:21.925Z,0.53
2018-04-30T18:12:50.328Z,0.57
2018-04-30T18:15:18.737Z,0.40
2018-04-30T18:17:47.200Z,0.50
2018-04-30T18:20:15.617Z,0.40
2018-04-30T18:22:44.026Z,0.70
2018-04-30T18:25:12.507Z,0.40
2018-04-30T18:27:40.925Z,0.50
2018-04-30T18:30:09.333Z,0.50
2018-04-30T18:32:37.781Z,1.07
2018-04-30T18:35:06.216Z,0.80
2018-04-30T18:37:34.619Z,2.67
2018-04-30T18:40:03.089Z,3.43
2018-04-30T18:42:31.951Z,1.70
2018-04-30T18:45:00.355Z,1.17
2018-04-30T18:47:28.804Z,1.20
2018-04-30T18:49:57.236Z,0.70
2018-04-30T18:52:25.732Z,1.33
2018-04-30T18:54:54.128Z,3.10
2018-04-30T18:57:22.557Z,1.70
2018-04-30T18:59:50.960Z,2.10
2018-04-30T19:02:19.412Z,1.00
2018-04-30T19:04:47.824Z,0.60
2018-04-30T19:07:16.228Z,0.60
2018-04-30T19:09:44.676Z,0.60
2018-04-30T19:12:13.100Z,1.00
2018-04-30T19:14:41.516Z,1.63
2018-04-30T19:17:09.960Z,0.90
2018-04-30T19:19:38.360Z,0.80
2018-04-30T19:22:06.780Z,0.60
2018-04-30T19:24:35.239Z,0.70
2018-04-30T19:27:03.708Z,0.60
2018-04-30T19:29:32.096Z,0.57
2018-04-30T19:32:00.544Z,0.57
2018-04-30T19:34:28.949Z,0.60
2018-04-30T19:36:57.364Z,0.83
2018-04-30T19:39:25.816Z,0.90
2018-04-30T19:41:54.224Z,0.50
2018-04-30T19:44:22.637Z,0.50
2018-04-30T19:46:51.144Z,0.50
2018-04-30T19:49:19.554Z,0.40
2018-04-30T19:51:47.962Z,0.50
2018-04-30T19:54:16.410Z,0.60
2018-04-30T19:56:44.816Z,0.73
2018-04-30T19:59:13.224Z,0.60
2018-04-30T20:01:41.673Z,0.40
2018-04-30T20:04:10.076Z,0.40
2018-04-30T20:06:38.481Z,0.50
2018-04-30T20:09:06.932Z,0.50
2018-04-30T20:11:35.347Z,0.50
2018-04-30T20:14:03.784Z,0.70
2018-04-30T20:16:32.232Z,0.50
2018-04-30T20:19:00.649Z,0.30
2018-04-30T20:21:29.076Z,0.70
2018-04-30T20:23:57.544Z,0.70
2018-04-30T20:26:25.963Z,0.50
2018-04-30T20:28:54.380Z,0.60
2018-04-30T20:31:22.840Z,0.50
2018-04-30T20:33:51.252Z,0.50
2018-04-30T20:36:19.667Z,0.60
2018-04-30T20:38:48.116Z,0.50
2018-04-30T20:41:16.529Z,0.60
2018-04-30T20:43:44.944Z,0.60
2018-04-30T20:46:13.392Z,0.50
2018-04-30T20:48:41.800Z,0.60
2018-04-30T20:51:10.200Z,0.70
2018-04-30T20:53:38.656Z,0.40
2018-04-30T20:56:07.077Z,0.60
2018-04-30T20:58:35.480Z,0.60
2018-04-30T21:01:03.947Z,0.53
2018-04-30T21:03:32.356Z,0.60
2018-04-30T21:06:00.768Z,0.60
2018-04-30T21:08:29.260Z,0.57
2018-04-30T21:10:57.666Z,0.50
2018-04-30T21:13:26.081Z,0.50
2018-04-30T21:15:54.552Z,0.50
2018-04-30T21:18:22.965Z,0.50
2018-04-30T21:20:51.377Z,0.70
2018-04-30T21:23:19.841Z,0.60
2018-04-30T21:25:48.241Z,0.80
2018-04-30T21:28:16.645Z,0.80
2018-04-30T21:30:45.085Z,0.80
2018-04-30T21:33:13.489Z,0.70
2018-04-30T21:35:41.896Z,0.77
2018-04-30T21:38:10.344Z,0.60
2018-04-30T21:40:38.752Z,0.60
2018-04-30T21:43:07.158Z,0.70
2018-04-30T21:45:35.607Z,0.87
2018-04-30T21:48:04.012Z,0.70
2018-04-30T21:50:32.413Z,0.80
2018-04-30T21:53:00.876Z,0.70
2018-04-30T21:55:29.278Z,0.90
2018-04-30T21:57:57.672Z,0.80
2018-04-30T22:00:27.999Z,0.40
2018-04-30T22:02:56.454Z,0.63
2018-04-30T22:05:24.868Z,0.77
2018-04-30T22:07:53.332Z,0.77
2018-04-30T22:10:21.733Z,0.77
2018-04-30T22:12:50.171Z,0.80
2018-04-30T22:15:18.624Z,0.97
2018-04-30T22:17:47.020Z,0.60
2018-04-30T22:20:15.440Z,0.67
2018-04-30T22:22:43.880Z,0.70
2018-04-30T22:25:12.301Z,0.50
2018-04-30T22:27:40.703Z,0.60
2018-04-30T22:30:09.154Z,0.80
2018-04-30T22:32:37.563Z,0.60
2018-04-30T22:35:05.971Z,0.53
2018-04-30T22:37:34.421Z,0.57
2018-04-30T22:40:02.857Z,0.63
2018-04-30T22:42:31.259Z,0.73
2018-04-30T22:44:59.723Z,0.60
2018-04-30T22:47:28.129Z,0.60
2018-04-30T22:49:56.564Z,0.70
2018-04-30T22:52:25.010Z,0.63
2018-04-30T22:54:53.421Z,0.60
2018-04-30T22:57:21.824Z,0.57
2018-04-30T22:59:50.272Z,0.80
2018-04-30T23:02:18.685Z,0.87
2018-04-30T23:04:47.093Z,0.93
2018-04-30T23:07:15.557Z,0.60
2018-04-30T23:09:43.968Z,0.60
2018-04-30T23:12:12.376Z,0.50
2018-04-30T23:14:40.820Z,0.70
2018-04-30T23:17:09.224Z,0.60
2018-04-30T23:19:37.637Z,0.73
2018-04-30T23:22:06.127Z,0.67
2018-04-30T23:24:34.632Z,0.50
2018-04-30T23:27:03.066Z,0.60
2018-04-30T23:29:31.536Z,0.80
2018-04-30T23:31:59.940Z,0.50
2018-04-30T23:34:28.381Z,0.60
2018-04-30T23:36:56.878Z,0.80
2018-04-30T23:39:25.288Z,0.90
2018-04-30T23:41:53.688Z,0.70
2018-04-30T23:44:22.135Z,0.80
2018-04-30T23:46:50.542Z,0.73
2018-04-30T23:49:18.956Z,0.70
2018-04-30T23:51:47.410Z,0.60
2018-04-30T23:54:15.824Z,0.70
2018-04-30T23:56:44.234Z,0.53
2018-04-30T23:59:12.736Z,0.70
